createdAt,value
2023-03-16T00:02:24.657Z,0.35
2023-03-16T00:04:56.830Z,0.26
2023-03-16T00:07:29.039Z,0.20
2023-03-16T00:10:01.143Z,0.23
2023-03-16T00:12:35.918Z,0.16
2023-03-16T00:15:09.257Z,0.19
2023-03-16T00:17:40.919Z,-0.01
2023-03-16T00:20:15.176Z,0.03
2023-03-16T00:22:47.901Z,0.15
2023-03-16T00:25:20.897Z,0.18
2023-03-16T00:27:55.339Z,0.21
2023-03-16T00:30:27.750Z,0.15
2023-03-16T00:32:59.663Z,0.21
2023-03-16T00:35:35.188Z,0.04
2023-03-16T00:38:06.691Z,0.19
2023-03-16T00:40:38.636Z,0.04
2023-03-16T00:43:13.383Z,0.14
2023-03-16T00:45:45.649Z,0.19
2023-03-16T00:48:18.763Z,0.18
2023-03-16T00:50:54.600Z,0.28
2023-03-16T00:53:26.628Z,0.19
2023-03-16T00:55:59.039Z,0.18
2023-03-16T00:58:36.119Z,0.18
2023-03-16T01:01:10.368Z,0.16
2023-03-16T01:03:42.440Z,0.04
2023-03-16T01:06:17.440Z,-0.09
2023-03-16T01:08:49.515Z,-0.12
2023-03-16T01:11:24.002Z,-0.11
2023-03-16T01:13:58.630Z,-0.03
2023-03-16T01:16:34.078Z,0.05
2023-03-16T01:19:06.206Z,0.03
2023-03-16T01:21:38.550Z,-0.04
2023-03-16T01:24:10.929Z,0.01
2023-03-16T01:26:43.349Z,0.08
2023-03-16T01:29:17.943Z,0.10
2023-03-16T01:31:50.350Z,0.05
2023-03-16T01:34:22.211Z,0.02
2023-03-16T01:36:54.968Z,0.04
2023-03-16T01:39:26.768Z,0.08
2023-03-16T01:41:58.886Z,0.10
2023-03-16T01:44:53.201Z,0.09
2023-03-16T01:47:26.074Z,0.11
2023-03-16T01:49:59.957Z,-0.14
2023-03-16T01:52:39.309Z,0.00
2023-03-16T01:55:15.450Z,-0.01
2023-03-16T01:57:50.709Z,0.02
2023-03-16T02:00:31.826Z,-0.01
2023-03-16T02:03:10.065Z,-0.02
2023-03-16T02:05:47.762Z,-0.12
2023-03-16T02:08:23.137Z,-0.14
2023-03-16T02:10:56.602Z,-0.13
2023-03-16T02:13:32.978Z,-0.23
2023-03-16T02:16:10.054Z,-0.23
2023-03-16T02:18:42.478Z,-0.24
2023-03-16T02:21:22.452Z,-0.17
2023-03-16T02:23:55.048Z,-0.09
2023-03-16T02:26:38.785Z,-0.13
2023-03-16T02:29:23.664Z,-0.18
2023-03-16T02:31:58.606Z,-0.14
2023-03-16T02:34:31.844Z,-0.19
2023-03-16T02:37:04.351Z,-0.23
2023-03-16T02:39:36.750Z,-0.25
2023-03-16T02:42:08.630Z,-0.27
2023-03-16T02:44:42.184Z,-0.31
2023-03-16T02:47:22.844Z,-0.24
2023-03-16T02:49:54.909Z,-0.30
2023-03-16T02:52:26.493Z,-0.27
2023-03-16T02:54:58.376Z,-0.29
2023-03-16T02:57:29.989Z,-0.39
2023-03-16T03:00:02.009Z,-0.50
2023-03-16T03:02:36.151Z,-0.57
2023-03-16T03:05:08.764Z,-0.57
2023-03-16T03:07:40.354Z,-0.56
2023-03-16T03:10:13.741Z,-0.61
2023-03-16T03:12:49.649Z,-0.61
2023-03-16T03:15:22.168Z,-0.65
2023-03-16T03:17:56.461Z,-0.62
2023-03-16T03:20:28.564Z,-0.62
2023-03-16T03:23:00.225Z,-0.61
2023-03-16T03:25:35.071Z,-0.63
2023-03-16T03:28:08.729Z,-0.61
2023-03-16T03:30:40.711Z,-0.61
2023-03-16T03:33:14.925Z,-0.66
2023-03-16T03:35:46.912Z,-0.65
2023-03-16T03:38:18.524Z,-0.61
2023-03-16T03:40:52.863Z,-0.68
2023-03-16T03:43:24.846Z,-0.71
2023-03-16T03:46:01.155Z,-0.70
2023-03-16T03:48:35.573Z,-0.68
2023-03-16T03:51:08.981Z,-0.73
2023-03-16T03:53:40.434Z,-0.71
2023-03-16T03:56:12.527Z,-0.66
2023-03-16T03:58:43.985Z,-0.67
2023-03-16T04:01:15.878Z,-0.68
2023-03-16T04:03:50.158Z,-0.76
2023-03-16T04:06:22.099Z,-0.75
2023-03-16T04:08:54.553Z,-0.72
2023-03-16T04:11:26.456Z,-0.75
2023-03-16T04:13:57.957Z,-0.79
2023-03-16T04:16:29.962Z,-0.78
2023-03-16T04:19:04.656Z,-0.72
2023-03-16T04:21:36.925Z,-0.78
2023-03-16T04:24:09.491Z,-0.78
2023-03-16T04:26:41.702Z,-0.82
2023-03-16T04:29:14.555Z,-0.87
2023-03-16T04:31:47.003Z,-0.87
2023-03-16T04:34:25.185Z,-0.91
2023-03-16T04:36:57.723Z,-0.93
2023-03-16T04:39:29.696Z,-0.94
2023-03-16T04:42:02.023Z,-0.93
2023-03-16T04:45:03.163Z,-0.93
2023-03-16T04:47:38.085Z,-0.91
2023-03-16T04:50:14.365Z,-1.01
2023-03-16T04:52:46.514Z,-0.98
2023-03-16T04:55:18.425Z,-1.07
2023-03-16T04:57:50.654Z,-1.02
2023-03-16T05:00:23.940Z,-1.03
2023-03-16T05:02:56.333Z,-1.05
2023-03-16T05:05:31.424Z,-1.03
2023-03-16T05:08:06.324Z,-1.10
2023-03-16T05:10:38.314Z,-1.10
2023-03-16T05:13:10.933Z,-1.07
2023-03-16T05:15:43.165Z,-1.09
2023-03-16T05:18:15.570Z,-1.10
2023-03-16T05:21:23.725Z,-1.07
2023-03-16T05:23:56.119Z,-1.07
2023-03-16T05:26:28.643Z,-1.09
2023-03-16T05:29:01.366Z,-1.08
2023-03-16T05:31:34.406Z,-1.04
2023-03-16T05:34:06.774Z,-0.99
2023-03-16T05:36:41.257Z,-1.07
2023-03-16T05:39:13.936Z,-1.02
2023-03-16T05:41:45.867Z,-0.98
2023-03-16T05:44:18.046Z,-0.96
2023-03-16T05:46:50.145Z,-0.93
2023-03-16T05:49:22.497Z,-0.93
2023-03-16T05:51:57.401Z,-0.94
2023-03-16T05:54:29.737Z,-0.93
2023-03-16T05:57:01.732Z,-0.90
2023-03-16T05:59:34.189Z,-0.81
2023-03-16T06:02:06.450Z,-0.72
2023-03-16T06:04:38.562Z,-0.72
2023-03-16T06:07:13.546Z,-0.64
2023-03-16T06:09:45.742Z,-0.56
2023-03-16T06:12:17.836Z,-0.52
2023-03-16T06:14:53.142Z,-0.35
2023-03-16T06:17:28.916Z,-0.30
2023-03-16T06:20:18.387Z,-0.30
2023-03-16T06:26:03.866Z,-0.15
2023-03-16T06:28:44.517Z,0.01
2023-03-16T06:31:29.736Z,0.11
2023-03-16T06:34:05.519Z,0.17
2023-03-16T06:36:52.680Z,0.16
2023-03-16T06:39:48.161Z,0.23
2023-03-16T06:42:20.800Z,0.21
2023-03-16T06:44:57.400Z,0.24
2023-03-16T06:47:33.773Z,0.27
2023-03-16T06:50:22.985Z,0.21
2023-03-16T06:53:03.612Z,0.23
2023-03-16T06:55:37.216Z,0.46
2023-03-16T06:58:12.496Z,0.64
2023-03-16T07:00:51.053Z,0.70
2023-03-16T07:03:24.566Z,0.83
2023-03-16T07:06:00.564Z,0.82
2023-03-16T07:08:34.527Z,0.92
2023-03-16T07:11:32.556Z,1.05
2023-03-16T07:14:12.228Z,1.19
2023-03-16T07:16:50.801Z,1.34
2023-03-16T07:19:33.734Z,1.38
2023-03-16T07:22:20.264Z,1.56
2023-03-16T07:25:08.138Z,1.51
2023-03-16T07:27:50.200Z,1.58
2023-03-16T07:30:50.541Z,1.84
2023-03-16T07:33:38.620Z,1.84
2023-03-16T07:36:18.804Z,1.98
2023-03-16T07:39:14.230Z,2.29
2023-03-16T07:41:46.637Z,2.76
2023-03-16T07:44:30.487Z,2.98
2023-03-16T07:47:12.317Z,3.35
2023-03-16T07:49:50.156Z,3.61
2023-03-16T07:52:24.477Z,3.84
2023-03-16T07:54:56.499Z,4.10
2023-03-16T07:57:31.592Z,4.26
2023-03-16T08:00:17.332Z,4.61
2023-03-16T08:02:52.089Z,4.93
2023-03-16T08:05:32.086Z,5.58
2023-03-16T08:08:13.289Z,6.14
2023-03-16T08:10:57.159Z,6.37
2023-03-16T08:13:44.982Z,6.44
2023-03-16T08:16:27.060Z,6.80
2023-03-16T08:19:05.163Z,7.69
2023-03-16T08:21:53.136Z,8.31
2023-03-16T08:24:37.428Z,8.52
2023-03-16T08:27:19.987Z,8.48
2023-03-16T08:30:00.983Z,9.07
2023-03-16T08:32:37.625Z,9.71
2023-03-16T08:35:19.697Z,9.41
2023-03-16T08:37:55.995Z,9.45
2023-03-16T08:40:30.867Z,9.52
2023-03-16T08:43:07.938Z,9.97
2023-03-16T08:45:56.444Z,10.71
2023-03-16T08:48:33.537Z,11.40
2023-03-16T08:51:09.443Z,11.39
2023-03-16T08:53:42.753Z,11.31
2023-03-16T08:56:17.266Z,11.36
2023-03-16T08:58:52.181Z,11.20
2023-03-16T09:01:25.821Z,11.42
2023-03-16T09:04:07.107Z,11.08
2023-03-16T09:07:05.816Z,10.65
2023-03-16T09:09:37.874Z,10.99
2023-03-16T09:12:12.462Z,11.05
2023-03-16T09:14:45.317Z,10.84
2023-03-16T09:17:23.861Z,11.34
2023-03-16T09:20:15.448Z,11.75
2023-03-16T09:22:58.670Z,11.61
2023-03-16T09:25:31.771Z,12.11
2023-03-16T09:28:14.734Z,11.91
2023-03-16T09:30:46.117Z,11.91
2023-03-16T09:33:20.787Z,12.06
2023-03-16T09:35:56.279Z,12.78
2023-03-16T09:38:32.385Z,12.56
2023-03-16T09:41:11.802Z,12.53
2023-03-16T09:43:58.124Z,13.37
2023-03-16T09:46:36.573Z,12.63
2023-03-16T09:49:09.664Z,12.40
2023-03-16T09:51:52.428Z,12.40
2023-03-16T09:54:57.588Z,12.74
2023-03-16T09:58:28.602Z,12.85
2023-03-16T10:02:02.125Z,13.89
2023-03-16T10:11:45.847Z,12.22
2023-03-16T10:14:26.713Z,12.25
2023-03-16T10:17:21.332Z,12.68
2023-03-16T10:20:11.945Z,13.79
2023-03-16T10:22:50.960Z,13.51
2023-03-16T10:25:49.828Z,13.86
2023-03-16T10:28:38.694Z,14.22
2023-03-16T10:31:15.399Z,14.07
2023-03-16T10:33:54.672Z,13.36
2023-03-16T10:36:34.743Z,12.66
2023-03-16T10:39:08.996Z,13.22
2023-03-16T10:41:50.854Z,13.81
2023-03-16T10:44:28.735Z,14.65
2023-03-16T10:47:11.034Z,14.54
2023-03-16T10:49:54.830Z,14.76
2023-03-16T10:52:39.411Z,14.67
2023-03-16T10:55:18.758Z,14.69
2023-03-16T10:58:09.710Z,13.70
2023-03-16T11:00:57.110Z,13.75
2023-03-16T11:03:41.490Z,13.71
2023-03-16T11:06:25.018Z,13.05
2023-03-16T11:09:05.994Z,13.02
2023-03-16T11:11:38.447Z,13.80
2023-03-16T11:14:18.393Z,14.14
2023-03-16T11:17:10.641Z,14.05
2023-03-16T11:20:17.780Z,13.10
2023-03-16T11:22:52.973Z,13.64
2023-03-16T11:25:34.629Z,14.27
2023-03-16T11:28:18.189Z,13.81
2023-03-16T11:31:08.800Z,13.74
2023-03-16T11:33:42.194Z,12.77
2023-03-16T11:36:33.838Z,12.44
2023-03-16T11:39:14.526Z,12.46
2023-03-16T11:42:00.513Z,13.30
2023-03-16T11:44:39.154Z,13.56
2023-03-16T11:47:38.289Z,13.23
2023-03-16T11:50:18.848Z,13.18
2023-03-16T11:53:23.433Z,13.35
2023-03-16T11:56:21.032Z,12.54
2023-03-16T11:59:27.426Z,12.65
2023-03-16T12:02:14.881Z,13.47
2023-03-16T12:05:03.303Z,13.44
2023-03-16T12:07:53.510Z,13.02
2023-03-16T12:10:29.345Z,12.59
2023-03-16T12:13:20.472Z,12.25
2023-03-16T12:15:57.855Z,11.78
2023-03-16T12:18:40.138Z,11.75
2023-03-16T12:21:20.444Z,11.00
2023-03-16T12:24:07.490Z,10.86
2023-03-16T12:26:44.384Z,10.78
2023-03-16T12:29:27.100Z,10.41
2023-03-16T12:32:06.439Z,10.02
2023-03-16T12:34:49.191Z,9.63
2023-03-16T12:37:41.839Z,9.18
2023-03-16T12:40:35.258Z,9.28
2023-03-16T12:43:23.021Z,9.52
2023-03-16T12:46:03.423Z,9.25
2023-03-16T12:48:42.276Z,9.01
2023-03-16T12:51:15.216Z,9.02
2023-03-16T12:53:59.564Z,8.97
2023-03-16T12:56:37.225Z,9.06
2023-03-16T12:59:11.968Z,9.11
2023-03-16T13:01:47.260Z,9.08
2023-03-16T13:04:36.993Z,9.15
2023-03-16T13:07:12.534Z,9.16
2023-03-16T13:09:54.800Z,9.26
2023-03-16T13:12:33.032Z,9.25
2023-03-16T13:15:18.369Z,9.17
2023-03-16T13:17:53.300Z,9.15
2023-03-16T13:20:32.271Z,9.21
2023-03-16T13:23:25.666Z,9.12
2023-03-16T13:26:19.574Z,9.13
2023-03-16T13:28:56.439Z,9.02
2023-03-16T13:31:34.875Z,9.09
2023-03-16T13:34:15.614Z,9.09
2023-03-16T13:36:53.420Z,9.05
2023-03-16T13:39:27.789Z,9.22
2023-03-16T13:42:21.296Z,9.01
2023-03-16T13:44:57.403Z,8.97
2023-03-16T13:47:34.948Z,8.99
2023-03-16T13:50:08.290Z,9.14
2023-03-16T13:52:43.562Z,9.11
2023-03-16T13:55:22.591Z,9.02
2023-03-16T13:57:58.687Z,9.17
2023-03-16T14:00:35.631Z,9.19
2023-03-16T14:03:18.407Z,9.06
2023-03-16T14:05:51.108Z,8.92
2023-03-16T14:08:26.710Z,9.08
2023-03-16T14:11:01.458Z,9.03
2023-03-16T14:13:43.071Z,9.01
2023-03-16T14:16:20.533Z,9.05
2023-03-16T14:18:57.925Z,9.05
2023-03-16T14:21:34.918Z,9.10
2023-03-16T14:24:10.279Z,9.13
2023-03-16T14:26:46.604Z,9.09
2023-03-16T14:29:26.178Z,9.25
2023-03-16T14:31:58.738Z,9.24
2023-03-16T14:34:34.692Z,9.04
2023-03-16T14:37:13.393Z,9.08
2023-03-16T14:39:46.185Z,9.09
2023-03-16T14:42:24.969Z,9.10
2023-03-16T14:45:01.190Z,9.06
2023-03-16T14:47:35.314Z,9.13
2023-03-16T14:50:13.228Z,9.02
2023-03-16T14:52:48.938Z,9.00
2023-03-16T14:55:24.229Z,9.02
2023-03-16T14:57:55.610Z,9.17
2023-03-16T15:00:33.069Z,9.17
2023-03-16T15:03:12.037Z,9.25
2023-03-16T15:05:45.731Z,9.30
2023-03-16T15:08:22.557Z,9.32
2023-03-16T15:10:54.558Z,9.29
2023-03-16T15:13:53.048Z,9.28
2023-03-16T15:16:28.407Z,9.37
2023-03-16T15:18:59.896Z,9.34
2023-03-16T15:21:35.121Z,9.42
2023-03-16T15:24:06.687Z,9.35
2023-03-16T15:26:38.272Z,9.22
2023-03-16T15:29:20.192Z,9.18
2023-03-16T15:31:54.808Z,9.06
2023-03-16T15:34:27.653Z,9.07
2023-03-16T15:37:01.808Z,9.04
2023-03-16T15:39:33.345Z,8.92
2023-03-16T15:42:05.455Z,8.91
2023-03-16T15:44:40.204Z,8.96
2023-03-16T15:47:15.721Z,8.99
2023-03-16T15:49:48.485Z,8.96
2023-03-16T15:52:29.009Z,8.87
2023-03-16T15:55:04.820Z,8.77
2023-03-16T15:57:37.415Z,8.66
2023-03-16T16:00:13.411Z,8.66
2023-03-16T16:02:48.298Z,8.59
2023-03-16T16:05:23.459Z,8.60
2023-03-16T16:07:56.752Z,8.57
2023-03-16T16:10:30.194Z,8.47
2023-03-16T16:13:05.949Z,8.35
2023-03-16T16:15:42.523Z,8.39
2023-03-16T16:18:37.798Z,8.38
2023-03-16T16:21:12.188Z,8.27
2023-03-16T16:23:46.885Z,8.30
2023-03-16T16:26:41.574Z,8.25
2023-03-16T16:29:22.708Z,8.27
2023-03-16T16:31:55.619Z,8.21
2023-03-16T16:34:31.504Z,8.05
2023-03-16T16:37:02.949Z,8.05
2023-03-16T16:39:35.739Z,7.97
2023-03-16T16:42:10.639Z,7.99
2023-03-16T16:44:46.840Z,7.94
2023-03-16T16:47:24.317Z,7.91
2023-03-16T16:50:02.484Z,7.89
2023-03-16T16:52:34.240Z,7.84
2023-03-16T16:55:07.011Z,7.78
2023-03-16T16:57:39.061Z,7.74
2023-03-16T17:00:22.187Z,7.64
2023-03-16T17:02:58.207Z,7.62
2023-03-16T17:05:34.117Z,7.59
2023-03-16T17:08:07.787Z,7.52
2023-03-16T17:10:42.802Z,7.53
2023-03-16T17:13:30.050Z,7.45
2023-03-16T17:16:04.339Z,7.38
2023-03-16T17:18:36.119Z,7.31
2023-03-16T17:21:16.083Z,7.20
2023-03-16T17:23:52.966Z,7.23
2023-03-16T17:26:33.173Z,7.23
2023-03-16T17:29:07.910Z,7.25
2023-03-16T17:31:44.237Z,7.23
2023-03-16T17:34:20.711Z,7.21
2023-03-16T17:36:55.823Z,7.21
2023-03-16T17:39:29.162Z,7.24
2023-03-16T17:42:03.598Z,7.31
2023-03-16T17:44:37.315Z,7.23
2023-03-16T17:47:18.965Z,7.23
2023-03-16T17:49:51.005Z,7.27
2023-03-16T17:52:26.899Z,7.17
2023-03-16T17:54:58.434Z,7.24
2023-03-16T17:57:33.878Z,7.21
2023-03-16T18:00:09.208Z,7.20
2023-03-16T18:02:47.858Z,7.16
2023-03-16T18:05:21.400Z,7.12
2023-03-16T18:07:56.256Z,7.06
2023-03-16T18:10:29.889Z,7.11
2023-03-16T18:13:05.962Z,7.13
2023-03-16T18:15:39.745Z,7.14
2023-03-16T18:18:19.236Z,7.05
2023-03-16T18:20:52.469Z,7.10
2023-03-16T18:23:32.240Z,7.04
2023-03-16T18:26:04.724Z,6.95
2023-03-16T18:28:38.100Z,6.96
2023-03-16T18:31:21.512Z,6.97
2023-03-16T18:33:55.492Z,6.90
2023-03-16T18:36:32.317Z,6.87
2023-03-16T18:39:09.889Z,6.85
2023-03-16T18:41:41.768Z,6.82
2023-03-16T18:44:20.915Z,6.82
2023-03-16T18:46:54.023Z,6.85
2023-03-16T18:49:30.525Z,6.85
2023-03-16T18:52:01.882Z,6.81
2023-03-16T18:54:38.672Z,6.77
2023-03-16T18:57:19.312Z,6.81
2023-03-16T18:59:51.838Z,6.81
2023-03-16T19:02:31.626Z,6.73
2023-03-16T19:05:07.827Z,6.74
2023-03-16T19:07:42.366Z,6.77
2023-03-16T19:10:26.077Z,6.73
2023-03-16T19:12:58.350Z,6.65
2023-03-16T19:15:32.174Z,6.63
2023-03-16T19:18:03.865Z,6.58
2023-03-16T19:20:37.984Z,6.55
2023-03-16T19:23:16.759Z,6.47
2023-03-16T19:25:53.565Z,6.44
2023-03-16T19:28:29.903Z,6.45
2023-03-16T19:31:01.529Z,6.30
2023-03-16T19:33:32.931Z,6.32
2023-03-16T19:36:05.253Z,6.21
2023-03-16T19:38:36.400Z,6.24
2023-03-16T19:41:24.044Z,6.20
2023-03-16T19:43:56.611Z,6.19
2023-03-16T19:46:30.280Z,6.21
2023-03-16T19:49:01.345Z,6.31
2023-03-16T19:51:33.006Z,6.30
2023-03-16T19:54:04.373Z,6.39
2023-03-16T19:56:41.439Z,6.41
2023-03-16T19:59:13.336Z,6.38
2023-03-16T20:01:44.903Z,6.45
2023-03-16T20:04:21.279Z,6.44
2023-03-16T20:06:53.857Z,6.41
2023-03-16T20:09:25.351Z,6.46
2023-03-16T20:11:59.756Z,6.41
2023-03-16T20:14:35.844Z,6.46
2023-03-16T20:17:12.998Z,6.41
2023-03-16T20:19:44.449Z,6.42
2023-03-16T20:22:21.651Z,6.39
2023-03-16T20:24:55.147Z,6.40
2023-03-16T20:27:31.639Z,6.42
2023-03-16T20:30:03.280Z,6.41
2023-03-16T20:32:40.160Z,6.39
2023-03-16T20:35:18.890Z,6.39
2023-03-16T20:37:53.199Z,6.32
2023-03-16T20:40:25.127Z,6.31
2023-03-16T20:42:59.480Z,6.29
2023-03-16T20:45:32.344Z,6.24
2023-03-16T20:48:04.269Z,6.25
2023-03-16T20:50:36.809Z,6.27
2023-03-16T20:53:08.923Z,6.26
2023-03-16T20:55:41.167Z,6.21
2023-03-16T20:58:28.206Z,6.13
2023-03-16T21:01:02.310Z,6.20
2023-03-16T21:03:35.005Z,6.17
2023-03-16T21:06:18.253Z,6.14
2023-03-16T21:08:50.416Z,6.10
2023-03-16T21:11:26.746Z,6.06
2023-03-16T21:14:05.447Z,6.08
2023-03-16T21:16:36.843Z,5.99
2023-03-16T21:19:14.988Z,5.95
2023-03-16T21:21:51.324Z,5.97
2023-03-16T21:27:32.355Z,5.92
2023-03-16T21:30:10.930Z,5.88
2023-03-16T21:32:42.789Z,5.86
2023-03-16T21:35:17.427Z,5.75
2023-03-16T21:37:49.100Z,5.75
2023-03-16T21:40:23.330Z,5.72
2023-03-16T21:42:54.641Z,5.58
2023-03-16T21:45:29.682Z,5.57
2023-03-16T21:48:01.310Z,5.53
2023-03-16T21:50:38.705Z,5.43
2023-03-16T21:53:19.173Z,5.44
2023-03-16T21:55:51.074Z,5.45
2023-03-16T21:58:23.518Z,5.38
2023-03-16T22:00:59.205Z,5.37
2023-03-16T22:03:49.789Z,5.31
2023-03-16T22:06:23.630Z,5.28
2023-03-16T22:08:55.022Z,5.29
2023-03-16T22:11:28.414Z,5.27
2023-03-16T22:14:01.543Z,5.25
2023-03-16T22:16:39.701Z,5.31
2023-03-16T22:19:16.249Z,5.27
2023-03-16T22:21:50.247Z,5.26
2023-03-16T22:24:27.761Z,5.24
2023-03-16T22:27:00.039Z,5.26
2023-03-16T22:29:33.993Z,5.22
2023-03-16T22:32:18.297Z,5.15
2023-03-16T22:34:53.191Z,5.20
2023-03-16T22:37:28.008Z,5.18
2023-03-16T22:39:59.426Z,5.20
2023-03-16T22:42:36.061Z,5.20
2023-03-16T22:45:19.573Z,5.10
2023-03-16T22:47:54.476Z,5.10
2023-03-16T22:50:28.480Z,5.13
2023-03-16T22:53:03.707Z,5.08
2023-03-16T22:55:39.806Z,4.99
2023-03-16T22:58:18.081Z,5.02
2023-03-16T23:00:49.471Z,5.02
2023-03-16T23:03:25.953Z,5.01
2023-03-16T23:05:57.394Z,5.03
2023-03-16T23:08:29.858Z,4.97
2023-03-16T23:11:01.362Z,4.98
2023-03-16T23:13:34.274Z,4.93
2023-03-16T23:16:05.708Z,4.95
2023-03-16T23:18:39.875Z,4.93
2023-03-16T23:21:13.924Z,4.92
2023-03-16T23:23:53.942Z,4.85
2023-03-16T23:26:35.006Z,4.83
2023-03-16T23:29:06.934Z,4.73
2023-03-16T23:31:38.276Z,4.64
2023-03-16T23:34:16.748Z,4.63
2023-03-16T23:37:23.093Z,4.66
2023-03-16T23:39:55.688Z,4.55
2023-03-16T23:42:27.687Z,4.53
2023-03-16T23:45:02.809Z,4.55
2023-03-16T23:47:35.073Z,4.50
2023-03-16T23:50:15.549Z,4.47
2023-03-16T23:52:47.633Z,4.45
2023-03-16T23:55:20.973Z,4.34
2023-03-16T23:57:53.777Z,4.35
